Terminal Aerodrome Forecast
Issued by NWS Portland, OR

Home | Current Version | Previous Version | Text Only | Print | Product List | Glossary On
Versions: 1 2 3 4 5 6 7 8 9 10 11 12 13 14 15 16 17 18 19 20 21 22 23 24 25 26
000
FTUS46 KPQR 171803 AAA
TAFTTD
TAF AMD
KTTD 171803Z 1718/1818 09015G25KT P6SM VCSH SCT050 BKN070
     FM172100 09013KT P6SM -RA SCT050 OVC070
     FM180100 10010KT P6SM OVC050=

USA.gov is the U.S. government's official web portal to all federal, state and local government web resources and services.